sensor_id;sensor_type;location;lat;lon;timestamp;temperature;humidity
19847;DHT22;10084;50.518;8.588;2023-05-07T00:01:46;16.20;74.30
19847;DHT22;10084;50.518;8.588;2023-05-07T00:04:12;16.20;74.30
19847;DHT22;10084;50.518;8.588;2023-05-07T00:06:38;16.20;74.30
19847;DHT22;10084;50.518;8.588;2023-05-07T00:09:04;16.20;74.30
19847;DHT22;10084;50.518;8.588;2023-05-07T00:11:30;16.10;74.40
19847;DHT22;10084;50.518;8.588;2023-05-07T00:13:55;16.10;74.50
19847;DHT22;10084;50.518;8.588;2023-05-07T00:16:21;16.10;74.70
19847;DHT22;10084;50.518;8.588;2023-05-07T00:18:47;16.10;74.70
19847;DHT22;10084;50.518;8.588;2023-05-07T00:21:13;16.10;74.80
19847;DHT22;10084;50.518;8.588;2023-05-07T00:23:39;16.10;74.90
19847;DHT22;10084;50.518;8.588;2023-05-07T00:26:05;16.10;75.60
19847;DHT22;10084;50.518;8.588;2023-05-07T00:28:30;16.10;75.00
19847;DHT22;10084;50.518;8.588;2023-05-07T00:30:56;16.10;75.00
19847;DHT22;10084;50.518;8.588;2023-05-07T00:33:22;16.10;75.10
19847;DHT22;10084;50.518;8.588;2023-05-07T00:35:48;16.10;75.20
19847;DHT22;10084;50.518;8.588;2023-05-07T00:38:14;16.10;75.20
19847;DHT22;10084;50.518;8.588;2023-05-07T00:40:40;16.10;75.20
19847;DHT22;10084;50.518;8.588;2023-05-07T00:43:06;16.10;75.30
19847;DHT22;10084;50.518;8.588;2023-05-07T00:45:33;16.10;75.30
19847;DHT22;10084;50.518;8.588;2023-05-07T00:48:00;16.10;75.40
19847;DHT22;10084;50.518;8.588;2023-05-07T00:50:27;16.10;75.40
19847;DHT22;10084;50.518;8.588;2023-05-07T00:52:54;16.10;75.50
19847;DHT22;10084;50.518;8.588;2023-05-07T00:55:21;16.10;75.60
19847;DHT22;10084;50.518;8.588;2023-05-07T00:57:47;16.00;75.60
19847;DHT22;10084;50.518;8.588;2023-05-07T01:00:14;16.00;75.60
19847;DHT22;10084;50.518;8.588;2023-05-07T01:02:40;16.00;75.60
19847;DHT22;10084;50.518;8.588;2023-05-07T01:05:08;16.10;75.80
19847;DHT22;10084;50.518;8.588;2023-05-07T01:07:35;16.00;75.80
19847;DHT22;10084;50.518;8.588;2023-05-07T01:10:03;16.10;75.90
19847;DHT22;10084;50.518;8.588;2023-05-07T01:12:30;16.00;75.90
19847;DHT22;10084;50.518;8.588;2023-05-07T01:14:57;16.10;76.00
19847;DHT22;10084;50.518;8.588;2023-05-07T01:17:23;16.10;76.00
19847;DHT22;10084;50.518;8.588;2023-05-07T01:19:50;16.10;75.90
19847;DHT22;10084;50.518;8.588;2023-05-07T01:22:27;16.10;75.90
19847;DHT22;10084;50.518;8.588;2023-05-07T01:24:54;16.00;75.90
19847;DHT22;10084;50.518;8.588;2023-05-07T01:27:21;16.00;75.90
19847;DHT22;10084;50.518;8.588;2023-05-07T01:29:50;16.00;76.00
19847;DHT22;10084;50.518;8.588;2023-05-07T01:32:19;16.00;76.00
19847;DHT22;10084;50.518;8.588;2023-05-07T01:34:48;16.00;76.20
19847;DHT22;10084;50.518;8.588;2023-05-07T01:37:15;15.90;76.10
19847;DHT22;10084;50.518;8.588;2023-05-07T01:39:42;15.90;76.10
19847;DHT22;10084;50.518;8.588;2023-05-07T01:42:09;15.90;76.20
19847;DHT22;10084;50.518;8.588;2023-05-07T01:44:35;15.90;76.40
19847;DHT22;10084;50.518;8.588;2023-05-07T01:47:01;15.90;76.50
19847;DHT22;10084;50.518;8.588;2023-05-07T01:49:27;15.90;76.50
19847;DHT22;10084;50.518;8.588;2023-05-07T01:51:53;15.90;76.50
19847;DHT22;10084;50.518;8.588;2023-05-07T01:54:19;15.90;76.70
19847;DHT22;10084;50.518;8.588;2023-05-07T01:56:46;15.90;76.70
19847;DHT22;10084;50.518;8.588;2023-05-07T01:59:14;15.80;76.60
19847;DHT22;10084;50.518;8.588;2023-05-07T02:01:40;15.80;76.70
19847;DHT22;10084;50.518;8.588;2023-05-07T02:04:06;15.80;76.80
19847;DHT22;10084;50.518;8.588;2023-05-07T02:06:31;15.80;76.80
19847;DHT22;10084;50.518;8.588;2023-05-07T02:09:02;15.80;76.90
19847;DHT22;10084;50.518;8.588;2023-05-07T02:11:28;15.80;76.90
19847;DHT22;10084;50.518;8.588;2023-05-07T02:13:54;15.80;77.00
19847;DHT22;10084;50.518;8.588;2023-05-07T02:16:20;15.80;77.10
19847;DHT22;10084;50.518;8.588;2023-05-07T02:18:46;15.80;77.20
19847;DHT22;10084;50.518;8.588;2023-05-07T02:21:12;15.80;77.20
19847;DHT22;10084;50.518;8.588;2023-05-07T02:23:38;15.80;77.10
19847;DHT22;10084;50.518;8.588;2023-05-07T02:26:04;15.80;77.20
19847;DHT22;10084;50.518;8.588;2023-05-07T02:28:30;15.80;77.30
19847;DHT22;10084;50.518;8.588;2023-05-07T02:31:04;15.80;78.10
19847;DHT22;10084;50.518;8.588;2023-05-07T02:33:30;15.80;77.70
19847;DHT22;10084;50.518;8.588;2023-05-07T02:35:56;15.80;77.60
19847;DHT22;10084;50.518;8.588;2023-05-07T02:38:22;15.80;77.70
19847;DHT22;10084;50.518;8.588;2023-05-07T02:40:48;15.80;77.70
19847;DHT22;10084;50.518;8.588;2023-05-07T02:43:15;15.80;77.70
19847;DHT22;10084;50.518;8.588;2023-05-07T02:45:44;15.80;77.80
19847;DHT22;10084;50.518;8.588;2023-05-07T02:48:11;15.80;77.90
19847;DHT22;10084;50.518;8.588;2023-05-07T02:50:37;15.80;78.00
19847;DHT22;10084;50.518;8.588;2023-05-07T02:53:02;15.80;78.00
19847;DHT22;10084;50.518;8.588;2023-05-07T02:55:29;15.80;77.90
19847;DHT22;10084;50.518;8.588;2023-05-07T02:57:55;15.80;77.90
19847;DHT22;10084;50.518;8.588;2023-05-07T03:00:21;15.70;77.90
19847;DHT22;10084;50.518;8.588;2023-05-07T03:02:54;15.70;78.00
19847;DHT22;10084;50.518;8.588;2023-05-07T03:05:20;15.70;78.20
19847;DHT22;10084;50.518;8.588;2023-05-07T03:07:46;15.70;78.30
19847;DHT22;10084;50.518;8.588;2023-05-07T03:10:13;15.70;78.30
19847;DHT22;10084;50.518;8.588;2023-05-07T03:12:39;15.70;78.40
19847;DHT22;10084;50.518;8.588;2023-05-07T03:15:05;15.60;78.50
19847;DHT22;10084;50.518;8.588;2023-05-07T03:17:31;15.60;78.60
19847;DHT22;10084;50.518;8.588;2023-05-07T03:19:57;15.60;78.80
19847;DHT22;10084;50.518;8.588;2023-05-07T03:22:23;15.60;79.00
19847;DHT22;10084;50.518;8.588;2023-05-07T03:24:49;15.60;79.00
19847;DHT22;10084;50.518;8.588;2023-05-07T03:27:14;15.60;79.00
19847;DHT22;10084;50.518;8.588;2023-05-07T03:29:41;15.60;79.80
19847;DHT22;10084;50.518;8.588;2023-05-07T03:32:07;15.60;79.10
19847;DHT22;10084;50.518;8.588;2023-05-07T03:34:32;15.50;79.20
19847;DHT22;10084;50.518;8.588;2023-05-07T03:36:58;15.50;79.30
19847;DHT22;10084;50.518;8.588;2023-05-07T03:39:24;15.50;79.40
19847;DHT22;10084;50.518;8.588;2023-05-07T03:41:50;15.50;79.60
19847;DHT22;10084;50.518;8.588;2023-05-07T03:44:15;15.50;79.70
19847;DHT22;10084;50.518;8.588;2023-05-07T03:46:41;15.40;79.80
19847;DHT22;10084;50.518;8.588;2023-05-07T03:49:09;15.40;80.00
19847;DHT22;10084;50.518;8.588;2023-05-07T03:51:35;15.40;80.00
19847;DHT22;10084;50.518;8.588;2023-05-07T03:54:02;15.40;80.20
19847;DHT22;10084;50.518;8.588;2023-05-07T03:56:30;15.30;80.30
19847;DHT22;10084;50.518;8.588;2023-05-07T03:58:57;15.30;80.30
19847;DHT22;10084;50.518;8.588;2023-05-07T04:01:23;15.30;80.50
19847;DHT22;10084;50.518;8.588;2023-05-07T04:03:49;15.30;80.80
19847;DHT22;10084;50.518;8.588;2023-05-07T04:06:16;15.30;80.90
19847;DHT22;10084;50.518;8.588;2023-05-07T04:08:44;15.30;81.00
19847;DHT22;10084;50.518;8.588;2023-05-07T04:11:11;15.30;81.20
19847;DHT22;10084;50.518;8.588;2023-05-07T04:13:37;15.30;81.20
19847;DHT22;10084;50.518;8.588;2023-05-07T04:16:05;15.30;81.30
19847;DHT22;10084;50.518;8.588;2023-05-07T04:18:33;15.20;81.10
19847;DHT22;10084;50.518;8.588;2023-05-07T04:20:59;15.20;81.00
19847;DHT22;10084;50.518;8.588;2023-05-07T04:23:25;15.10;81.10
19847;DHT22;10084;50.518;8.588;2023-05-07T04:25:51;15.10;81.50
19847;DHT22;10084;50.518;8.588;2023-05-07T04:28:22;15.10;81.80
19847;DHT22;10084;50.518;8.588;2023-05-07T04:30:48;15.10;82.10
19847;DHT22;10084;50.518;8.588;2023-05-07T04:33:15;15.10;82.40
19847;DHT22;10084;50.518;8.588;2023-05-07T04:35:45;15.10;82.50
19847;DHT22;10084;50.518;8.588;2023-05-07T04:38:11;15.10;82.70
19847;DHT22;10084;50.518;8.588;2023-05-07T04:40:37;15.10;82.60
19847;DHT22;10084;50.518;8.588;2023-05-07T04:43:03;15.10;82.70
19847;DHT22;10084;50.518;8.588;2023-05-07T04:45:32;15.10;82.70
19847;DHT22;10084;50.518;8.588;2023-05-07T04:47:58;15.10;82.90
19847;DHT22;10084;50.518;8.588;2023-05-07T04:50:24;15.10;83.20
19847;DHT22;10084;50.518;8.588;2023-05-07T04:52:52;15.10;83.50
19847;DHT22;10084;50.518;8.588;2023-05-07T04:55:18;15.20;83.60
19847;DHT22;10084;50.518;8.588;2023-05-07T04:57:44;15.20;83.70
19847;DHT22;10084;50.518;8.588;2023-05-07T05:00:13;15.30;83.70
19847;DHT22;10084;50.518;8.588;2023-05-07T05:02:41;15.30;83.60
19847;DHT22;10084;50.518;8.588;2023-05-07T05:05:07;15.30;83.50
19847;DHT22;10084;50.518;8.588;2023-05-07T05:07:33;15.30;83.60
19847;DHT22;10084;50.518;8.588;2023-05-07T05:09:59;15.40;83.60
19847;DHT22;10084;50.518;8.588;2023-05-07T05:12:25;15.40;83.40
19847;DHT22;10084;50.518;8.588;2023-05-07T05:14:51;15.40;83.50
19847;DHT22;10084;50.518;8.588;2023-05-07T05:17:16;15.40;83.60
19847;DHT22;10084;50.518;8.588;2023-05-07T05:19:42;15.50;83.60
19847;DHT22;10084;50.518;8.588;2023-05-07T05:22:08;15.50;83.60
19847;DHT22;10084;50.518;8.588;2023-05-07T05:24:34;15.50;83.70
19847;DHT22;10084;50.518;8.588;2023-05-07T05:27:01;15.50;83.40
19847;DHT22;10084;50.518;8.588;2023-05-07T05:29:28;15.50;83.10
19847;DHT22;10084;50.518;8.588;2023-05-07T05:31:55;15.50;83.30
19847;DHT22;10084;50.518;8.588;2023-05-07T05:34:21;15.50;83.30
19847;DHT22;10084;50.518;8.588;2023-05-07T05:36:48;15.50;83.50
19847;DHT22;10084;50.518;8.588;2023-05-07T05:39:14;15.40;83.60
19847;DHT22;10084;50.518;8.588;2023-05-07T05:41:40;15.40;83.80
19847;DHT22;10084;50.518;8.588;2023-05-07T05:44:06;15.50;84.00
19847;DHT22;10084;50.518;8.588;2023-05-07T05:46:32;15.50;83.90
19847;DHT22;10084;50.518;8.588;2023-05-07T05:48:58;15.50;84.10
19847;DHT22;10084;50.518;8.588;2023-05-07T05:51:23;15.60;84.30
19847;DHT22;10084;50.518;8.588;2023-05-07T05:53:49;15.60;84.20
19847;DHT22;10084;50.518;8.588;2023-05-07T05:56:16;15.70;84.20
19847;DHT22;10084;50.518;8.588;2023-05-07T05:58:41;15.70;84.10
19847;DHT22;10084;50.518;8.588;2023-05-07T06:01:08;15.80;84.20
19847;DHT22;10084;50.518;8.588;2023-05-07T06:03:35;15.90;84.40
19847;DHT22;10084;50.518;8.588;2023-05-07T06:06:05;16.00;84.40
19847;DHT22;10084;50.518;8.588;2023-05-07T06:08:31;16.10;84.20
19847;DHT22;10084;50.518;8.588;2023-05-07T06:10:58;16.20;83.90
19847;DHT22;10084;50.518;8.588;2023-05-07T06:13:24;16.20;83.70
19847;DHT22;10084;50.518;8.588;2023-05-07T06:15:50;16.30;83.60
19847;DHT22;10084;50.518;8.588;2023-05-07T06:18:16;16.40;83.60
19847;DHT22;10084;50.518;8.588;2023-05-07T06:20:42;16.50;83.30
19847;DHT22;10084;50.518;8.588;2023-05-07T06:23:14;16.60;83.30
19847;DHT22;10084;50.518;8.588;2023-05-07T06:25:39;16.60;82.70
19847;DHT22;10084;50.518;8.588;2023-05-07T06:28:06;16.70;82.70
19847;DHT22;10084;50.518;8.588;2023-05-07T06:30:35;16.70;82.60
19847;DHT22;10084;50.518;8.588;2023-05-07T06:33:01;16.80;82.50
19847;DHT22;10084;50.518;8.588;2023-05-07T06:35:27;16.80;82.40
19847;DHT22;10084;50.518;8.588;2023-05-07T06:37:53;16.90;82.20
19847;DHT22;10084;50.518;8.588;2023-05-07T06:40:23;16.90;81.90
19847;DHT22;10084;50.518;8.588;2023-05-07T06:42:48;17.00;81.70
19847;DHT22;10084;50.518;8.588;2023-05-07T06:45:34;17.00;81.80
19847;DHT22;10084;50.518;8.588;2023-05-07T06:47:59;17.10;81.60
19847;DHT22;10084;50.518;8.588;2023-05-07T06:50:27;17.20;81.50
19847;DHT22;10084;50.518;8.588;2023-05-07T06:52:56;17.30;81.30
19847;DHT22;10084;50.518;8.588;2023-05-07T06:55:41;17.30;81.00
19847;DHT22;10084;50.518;8.588;2023-05-07T06:58:57;17.40;80.80
19847;DHT22;10084;50.518;8.588;2023-05-07T07:05:28;17.70;80.90
19847;DHT22;10084;50.518;8.588;2023-05-07T07:15:14;18.50;80.50
19847;DHT22;10084;50.518;8.588;2023-05-07T07:18:06;18.80;79.70
19847;DHT22;10084;50.518;8.588;2023-05-07T07:20:51;19.10;79.20
19847;DHT22;10084;50.518;8.588;2023-05-07T07:35:37;20.90;78.00
19847;DHT22;10084;50.518;8.588;2023-05-07T07:38:50;21.20;76.50
19847;DHT22;10084;50.518;8.588;2023-05-07T07:46:10;22.30;77.60
19847;DHT22;10084;50.518;8.588;2023-05-07T07:53:15;24.00;90.50
19847;DHT22;10084;50.518;8.588;2023-05-07T07:59:17;25.10;90.40
19847;DHT22;10084;50.518;8.588;2023-05-07T08:02:21;25.50;72.80
19847;DHT22;10084;50.518;8.588;2023-05-07T08:08:39;25.50;68.90
19847;DHT22;10084;50.518;8.588;2023-05-07T08:19:21;24.90;66.90
19847;DHT22;10084;50.518;8.588;2023-05-07T08:22:46;24.50;66.10
19847;DHT22;10084;50.518;8.588;2023-05-07T08:26:01;24.20;66.30
19847;DHT22;10084;50.518;8.588;2023-05-07T08:28:53;24.10;66.00
19847;DHT22;10084;50.518;8.588;2023-05-07T08:31:57;24.20;66.30
19847;DHT22;10084;50.518;8.588;2023-05-07T08:35:17;24.30;66.20
19847;DHT22;10084;50.518;8.588;2023-05-07T08:38:26;24.90;71.70
19847;DHT22;10084;50.518;8.588;2023-05-07T08:41:14;25.40;68.70
19847;DHT22;10084;50.518;8.588;2023-05-07T08:44:03;25.50;67.20
19847;DHT22;10084;50.518;8.588;2023-05-07T08:47:00;25.50;65.90
19847;DHT22;10084;50.518;8.588;2023-05-07T08:50:08;25.40;65.10
19847;DHT22;10084;50.518;8.588;2023-05-07T08:52:59;25.30;63.90
19847;DHT22;10084;50.518;8.588;2023-05-07T08:55:41;25.20;63.40
19847;DHT22;10084;50.518;8.588;2023-05-07T08:58:58;25.10;63.00
19847;DHT22;10084;50.518;8.588;2023-05-07T09:02:16;25.00;62.70
19847;DHT22;10084;50.518;8.588;2023-05-07T09:05:35;25.00;62.20
19847;DHT22;10084;50.518;8.588;2023-05-07T09:17:13;25.40;61.80
19847;DHT22;10084;50.518;8.588;2023-05-07T09:20:29;25.80;64.00
19847;DHT22;10084;50.518;8.588;2023-05-07T09:23:31;26.20;66.80
19847;DHT22;10084;50.518;8.588;2023-05-07T09:26:23;26.60;74.20
19847;DHT22;10084;50.518;8.588;2023-05-07T09:29:01;26.70;78.50
19847;DHT22;10084;50.518;8.588;2023-05-07T09:31:50;26.90;80.30
19847;DHT22;10084;50.518;8.588;2023-05-07T09:34:24;27.30;79.70
19847;DHT22;10084;50.518;8.588;2023-05-07T09:37:10;27.90;76.80
19847;DHT22;10084;50.518;8.588;2023-05-07T09:47:39;30.40;71.70
19847;DHT22;10084;50.518;8.588;2023-05-07T09:51:25;31.10;73.40
19847;DHT22;10084;50.518;8.588;2023-05-07T09:53:57;31.70;72.50
19847;DHT22;10084;50.518;8.588;2023-05-07T09:56:55;32.00;74.30
19847;DHT22;10084;50.518;8.588;2023-05-07T09:59:46;32.10;73.70
19847;DHT22;10084;50.518;8.588;2023-05-07T10:05:49;33.20;79.10
19847;DHT22;10084;50.518;8.588;2023-05-07T10:08:17;34.30;70.20
19847;DHT22;10084;50.518;8.588;2023-05-07T10:10:51;34.70;75.30
19847;DHT22;10084;50.518;8.588;2023-05-07T10:13:21;34.90;62.60
19847;DHT22;10084;50.518;8.588;2023-05-07T10:15:50;35.40;59.20
19847;DHT22;10084;50.518;8.588;2023-05-07T10:18:18;36.00;58.10
19847;DHT22;10084;50.518;8.588;2023-05-07T10:20:50;36.20;57.60
19847;DHT22;10084;50.518;8.588;2023-05-07T10:23:22;36.50;60.40
19847;DHT22;10084;50.518;8.588;2023-05-07T10:25:49;36.60;58.40
19847;DHT22;10084;50.518;8.588;2023-05-07T10:33:45;37.50;66.40
19847;DHT22;10084;50.518;8.588;2023-05-07T10:36:13;37.70;70.10
19847;DHT22;10084;50.518;8.588;2023-05-07T10:43:43;39.00;53.70
19847;DHT22;10084;50.518;8.588;2023-05-07T10:46:20;38.80;43.70
19847;DHT22;10084;50.518;8.588;2023-05-07T10:51:35;36.40;42.40
19847;DHT22;10084;50.518;8.588;2023-05-07T10:56:42;34.40;40.30
19847;DHT22;10084;50.518;8.588;2023-05-07T11:02:04;32.70;41.00
19847;DHT22;10084;50.518;8.588;2023-05-07T11:04:37;31.80;41.90
19847;DHT22;10084;50.518;8.588;2023-05-07T11:07:26;31.10;46.60
19847;DHT22;10084;50.518;8.588;2023-05-07T11:13:01;30.00;68.60
19847;DHT22;10084;50.518;8.588;2023-05-07T11:15:36;29.80;58.40
19847;DHT22;10084;50.518;8.588;2023-05-07T11:18:05;30.00;61.50
19847;DHT22;10084;50.518;8.588;2023-05-07T11:20:46;30.20;60.90
19847;DHT22;10084;50.518;8.588;2023-05-07T11:31:26;33.20;49.20
19847;DHT22;10084;50.518;8.588;2023-05-07T11:33:53;34.10;58.90
19847;DHT22;10084;50.518;8.588;2023-05-07T11:38:50;35.10;60.60
19847;DHT22;10084;50.518;8.588;2023-05-07T11:41:16;34.90;49.60
19847;DHT22;10084;50.518;8.588;2023-05-07T11:43:56;34.40;48.60
19847;DHT22;10084;50.518;8.588;2023-05-07T11:46:22;33.70;48.60
19847;DHT22;10084;50.518;8.588;2023-05-07T11:48:48;33.00;48.10
19847;DHT22;10084;50.518;8.588;2023-05-07T11:51:19;32.30;48.30
19847;DHT22;10084;50.518;8.588;2023-05-07T11:53:45;31.80;48.60
19847;DHT22;10084;50.518;8.588;2023-05-07T11:56:15;31.40;49.00
19847;DHT22;10084;50.518;8.588;2023-05-07T11:58:42;31.00;49.10
19847;DHT22;10084;50.518;8.588;2023-05-07T12:01:10;30.70;49.10
19847;DHT22;10084;50.518;8.588;2023-05-07T12:03:40;30.50;49.90
19847;DHT22;10084;50.518;8.588;2023-05-07T12:06:11;30.30;49.90
19847;DHT22;10084;50.518;8.588;2023-05-07T12:08:39;30.10;50.80
19847;DHT22;10084;50.518;8.588;2023-05-07T12:11:07;29.90;50.50
19847;DHT22;10084;50.518;8.588;2023-05-07T13:00:37;26.50;73.20
19847;DHT22;10084;50.518;8.588;2023-05-07T13:03:03;26.40;69.20
19847;DHT22;10084;50.518;8.588;2023-05-07T15:02:38;24.40;80.50
19847;DHT22;10084;50.518;8.588;2023-05-07T15:05:04;24.50;72.70
19847;DHT22;10084;50.518;8.588;2023-05-07T15:07:30;24.50;72.50
19847;DHT22;10084;50.518;8.588;2023-05-07T15:09:58;24.60;72.20
19847;DHT22;10084;50.518;8.588;2023-05-07T15:12:26;24.80;72.30
19847;DHT22;10084;50.518;8.588;2023-05-07T15:14:52;24.90;72.00
19847;DHT22;10084;50.518;8.588;2023-05-07T15:17:18;25.00;72.20
19847;DHT22;10084;50.518;8.588;2023-05-07T15:19:43;25.00;72.30
19847;DHT22;10084;50.518;8.588;2023-05-07T15:22:09;25.10;71.70
19847;DHT22;10084;50.518;8.588;2023-05-07T15:36:52;24.10;74.50
19847;DHT22;10084;50.518;8.588;2023-05-07T15:39:18;24.00;69.20
19847;DHT22;10084;50.518;8.588;2023-05-07T15:41:44;23.70;66.20
19847;DHT22;10084;50.518;8.588;2023-05-07T15:46:36;23.30;71.70
19847;DHT22;10084;50.518;8.588;2023-05-07T15:49:02;23.20;67.00
19847;DHT22;10084;50.518;8.588;2023-05-07T15:51:29;23.10;66.80
19847;DHT22;10084;50.518;8.588;2023-05-07T15:53:56;22.90;67.20
19847;DHT22;10084;50.518;8.588;2023-05-07T15:56:22;22.80;67.90
19847;DHT22;10084;50.518;8.588;2023-05-07T15:58:49;22.60;68.00
19847;DHT22;10084;50.518;8.588;2023-05-07T16:03:41;22.40;70.50
19847;DHT22;10084;50.518;8.588;2023-05-07T16:06:07;22.40;67.80
19847;DHT22;10084;50.518;8.588;2023-05-07T16:08:32;22.30;67.30
19847;DHT22;10084;50.518;8.588;2023-05-07T16:10:58;22.20;68.00
19847;DHT22;10084;50.518;8.588;2023-05-07T16:13:24;22.20;69.40
19847;DHT22;10084;50.518;8.588;2023-05-07T16:15:55;22.10;69.30
19847;DHT22;10084;50.518;8.588;2023-05-07T16:18:21;22.10;79.70
19847;DHT22;10084;50.518;8.588;2023-05-07T16:20:50;22.10;70.70
19847;DHT22;10084;50.518;8.588;2023-05-07T16:25:42;22.10;70.20
19847;DHT22;10084;50.518;8.588;2023-05-07T16:28:08;22.10;73.30
19847;DHT22;10084;50.518;8.588;2023-05-07T16:30:34;22.00;70.70
19847;DHT22;10084;50.518;8.588;2023-05-07T16:32:59;21.90;75.10
19847;DHT22;10084;50.518;8.588;2023-05-07T16:35:25;21.80;72.10
19847;DHT22;10084;50.518;8.588;2023-05-07T16:37:51;21.70;65.30
19847;DHT22;10084;50.518;8.588;2023-05-07T16:40:17;21.60;67.90
19847;DHT22;10084;50.518;8.588;2023-05-07T16:42:44;21.50;69.70
19847;DHT22;10084;50.518;8.588;2023-05-07T16:45:09;21.40;70.00
19847;DHT22;10084;50.518;8.588;2023-05-07T16:47:35;21.30;64.90
19847;DHT22;10084;50.518;8.588;2023-05-07T16:50:01;21.20;64.40
19847;DHT22;10084;50.518;8.588;2023-05-07T16:52:30;21.20;64.00
19847;DHT22;10084;50.518;8.588;2023-05-07T16:54:57;21.10;63.80
19847;DHT22;10084;50.518;8.588;2023-05-07T16:57:28;21.10;63.70
19847;DHT22;10084;50.518;8.588;2023-05-07T16:59:55;21.00;63.70
19847;DHT22;10084;50.518;8.588;2023-05-07T17:02:22;20.90;63.40
19847;DHT22;10084;50.518;8.588;2023-05-07T17:04:48;20.90;59.70
19847;DHT22;10084;50.518;8.588;2023-05-07T17:07:13;20.90;59.10
19847;DHT22;10084;50.518;8.588;2023-05-07T17:09:39;20.80;58.70
19847;DHT22;10084;50.518;8.588;2023-05-07T17:12:05;20.80;58.60
19847;DHT22;10084;50.518;8.588;2023-05-07T17:14:31;20.80;58.50
19847;DHT22;10084;50.518;8.588;2023-05-07T17:16:57;20.80;58.20
19847;DHT22;10084;50.518;8.588;2023-05-07T17:19:22;20.80;58.00
19847;DHT22;10084;50.518;8.588;2023-05-07T17:21:48;20.80;57.80
19847;DHT22;10084;50.518;8.588;2023-05-07T17:24:14;20.70;57.70
19847;DHT22;10084;50.518;8.588;2023-05-07T17:26:39;20.60;57.70
19847;DHT22;10084;50.518;8.588;2023-05-07T17:29:08;20.60;57.80
19847;DHT22;10084;50.518;8.588;2023-05-07T17:31:33;20.50;57.80
19847;DHT22;10084;50.518;8.588;2023-05-07T17:33:59;20.30;57.80
19847;DHT22;10084;50.518;8.588;2023-05-07T17:36:25;20.30;61.20
19847;DHT22;10084;50.518;8.588;2023-05-07T17:38:51;20.20;61.40
19847;DHT22;10084;50.518;8.588;2023-05-07T17:41:17;20.10;61.70
19847;DHT22;10084;50.518;8.588;2023-05-07T17:43:43;20.10;62.30
19847;DHT22;10084;50.518;8.588;2023-05-07T17:46:09;20.00;62.40
19847;DHT22;10084;50.518;8.588;2023-05-07T17:48:34;19.90;59.80
19847;DHT22;10084;50.518;8.588;2023-05-07T17:51:01;19.90;59.10
19847;DHT22;10084;50.518;8.588;2023-05-07T17:53:27;19.90;59.00
19847;DHT22;10084;50.518;8.588;2023-05-07T17:55:53;19.90;59.00
19847;DHT22;10084;50.518;8.588;2023-05-07T17:58:19;19.90;59.10
19847;DHT22;10084;50.518;8.588;2023-05-07T18:00:47;19.90;59.10
19847;DHT22;10084;50.518;8.588;2023-05-07T18:03:13;19.90;59.20
19847;DHT22;10084;50.518;8.588;2023-05-07T18:05:39;19.90;59.10
19847;DHT22;10084;50.518;8.588;2023-05-07T18:08:08;20.00;59.20
19847;DHT22;10084;50.518;8.588;2023-05-07T18:10:36;20.00;59.20
19847;DHT22;10084;50.518;8.588;2023-05-07T18:13:02;20.00;59.80
19847;DHT22;10084;50.518;8.588;2023-05-07T18:15:28;20.00;59.00
19847;DHT22;10084;50.518;8.588;2023-05-07T18:17:54;20.00;59.00
19847;DHT22;10084;50.518;8.588;2023-05-07T18:20:20;20.00;59.00
19847;DHT22;10084;50.518;8.588;2023-05-07T18:22:46;20.00;58.90
19847;DHT22;10084;50.518;8.588;2023-05-07T18:25:11;19.90;58.80
19847;DHT22;10084;50.518;8.588;2023-05-07T18:27:37;19.90;58.80
19847;DHT22;10084;50.518;8.588;2023-05-07T18:30:03;19.90;58.70
19847;DHT22;10084;50.518;8.588;2023-05-07T18:32:30;19.80;58.60
19847;DHT22;10084;50.518;8.588;2023-05-07T18:34:56;19.80;58.70
19847;DHT22;10084;50.518;8.588;2023-05-07T18:37:22;19.70;58.80
19847;DHT22;10084;50.518;8.588;2023-05-07T18:39:48;19.70;58.80
19847;DHT22;10084;50.518;8.588;2023-05-07T18:42:14;19.60;58.80
19847;DHT22;10084;50.518;8.588;2023-05-07T18:44:40;19.60;58.90
19847;DHT22;10084;50.518;8.588;2023-05-07T18:47:06;19.50;58.90
19847;DHT22;10084;50.518;8.588;2023-05-07T18:49:32;19.50;58.90
19847;DHT22;10084;50.518;8.588;2023-05-07T18:51:58;19.40;58.90
19847;DHT22;10084;50.518;8.588;2023-05-07T18:54:24;19.30;59.00
19847;DHT22;10084;50.518;8.588;2023-05-07T18:56:50;19.30;58.90
19847;DHT22;10084;50.518;8.588;2023-05-07T18:59:16;19.30;58.90
19847;DHT22;10084;50.518;8.588;2023-05-07T19:01:42;19.20;58.80
19847;DHT22;10084;50.518;8.588;2023-05-07T19:04:08;19.10;60.10
19847;DHT22;10084;50.518;8.588;2023-05-07T19:06:34;19.10;61.50
19847;DHT22;10084;50.518;8.588;2023-05-07T19:08:59;19.00;62.50
19847;DHT22;10084;50.518;8.588;2023-05-07T19:11:25;19.00;64.20
19847;DHT22;10084;50.518;8.588;2023-05-07T19:16:17;18.90;70.60
19847;DHT22;10084;50.518;8.588;2023-05-07T19:18:43;18.80;71.60
19847;DHT22;10084;50.518;8.588;2023-05-07T19:21:09;18.80;71.00
19847;DHT22;10084;50.518;8.588;2023-05-07T19:23:35;18.70;71.40
19847;DHT22;10084;50.518;8.588;2023-05-07T19:26:07;18.70;71.80
19847;DHT22;10084;50.518;8.588;2023-05-07T19:28:36;18.60;72.40
19847;DHT22;10084;50.518;8.588;2023-05-07T19:31:02;18.50;72.60
19847;DHT22;10084;50.518;8.588;2023-05-07T19:33:27;18.40;69.20
19847;DHT22;10084;50.518;8.588;2023-05-07T19:35:54;18.40;67.40
19847;DHT22;10084;50.518;8.588;2023-05-07T19:38:26;18.40;65.50
19847;DHT22;10084;50.518;8.588;2023-05-07T19:40:53;18.30;65.10
19847;DHT22;10084;50.518;8.588;2023-05-07T19:43:19;18.30;64.90
19847;DHT22;10084;50.518;8.588;2023-05-07T19:45:45;18.30;64.20
19847;DHT22;10084;50.518;8.588;2023-05-07T19:48:13;18.30;63.90
19847;DHT22;10084;50.518;8.588;2023-05-07T19:50:40;18.30;63.70
19847;DHT22;10084;50.518;8.588;2023-05-07T19:53:05;18.30;63.40
19847;DHT22;10084;50.518;8.588;2023-05-07T19:55:31;18.20;63.10
19847;DHT22;10084;50.518;8.588;2023-05-07T19:57:57;18.20;62.90
19847;DHT22;10084;50.518;8.588;2023-05-07T20:00:23;18.20;63.10
19847;DHT22;10084;50.518;8.588;2023-05-07T20:02:51;18.10;62.90
19847;DHT22;10084;50.518;8.588;2023-05-07T20:05:17;18.10;62.80
19847;DHT22;10084;50.518;8.588;2023-05-07T20:07:43;18.00;62.60
19847;DHT22;10084;50.518;8.588;2023-05-07T20:10:09;18.00;63.40
19847;DHT22;10084;50.518;8.588;2023-05-07T20:12:35;18.00;63.70
19847;DHT22;10084;50.518;8.588;2023-05-07T20:15:02;17.90;64.20
19847;DHT22;10084;50.518;8.588;2023-05-07T20:17:30;17.90;63.40
19847;DHT22;10084;50.518;8.588;2023-05-07T20:19:57;17.80;62.80
19847;DHT22;10084;50.518;8.588;2023-05-07T20:22:22;17.70;62.30
19847;DHT22;10084;50.518;8.588;2023-05-07T20:24:48;17.60;62.10
19847;DHT22;10084;50.518;8.588;2023-05-07T20:27:14;17.50;62.40
19847;DHT22;10084;50.518;8.588;2023-05-07T20:29:40;17.50;65.20
19847;DHT22;10084;50.518;8.588;2023-05-07T20:32:06;17.40;65.30
19847;DHT22;10084;50.518;8.588;2023-05-07T20:34:32;17.30;64.90